RJNF(METAR)
06/24 16:00
RJNF 240700Z 32010KT 9999 FEW020 BKNXXX 23/18 Q1011 RMK A2987=
戻る
トップページへ戻る
IMOC Co,.Ltd.